Accueil
METAR-TAF:

METAR-TAF

Aéroports :

Laupheim, Allemagne

latitude: 48-13N, longitude: 009-55E, altitude: 538 m

Observation

Le bulletin a été fait il y a 47 minutes, à 00:20 UTC
Vent 6 kt de ouest/sud-ouest
Température 9°C
Humidité 57%
Pression 1009 hPa
Visibilité 10 km ou plus
Nuages fragmentés à une hauteur de 6000 ft

METAR: ETHL 220020Z 24006KT 9999 BKN060 09/01 Q1009 BLU

Heure: 02:07 (01:07 UTC)

Prévision

Le bulletin a été fait il y a 8 heures et 4 minutes, à 17:03 UTC
Prévision valable du 21 à 18 UTC au 22 à 03 UTC
Vent 7 kt de sud-ouest
Visibilité 10 km ou plus
Nuages fragmentés à une hauteur de 10000 ft
Nuages fragmentés à une hauteur de 22000 ft
Evoluant progressivement
du 22 à 01 UTC au 22 à 03 UTC
Vent 10 kt de sud-ouest avec des rafales jusqu'à 25 kt
Visibilité: 9000 m
Nuages fragmentés à une hauteur de 3000 ft
pluie faible,

TAF: ETHL 211703Z 2118/2203 22007KT 9999 NSW BKN100 BKN220 BECMG 2201/2203 23010G25KT 9000 -RA BKN030

Observations et prévisions météorologiques de plus de 4000 aéroports (messages METAR et TAF).

Les stations disponibles sont représentées par des disques jaunes et rouges sur la carte.

Passer la souris dessus pour voir le nom de la station.

Cliquer dessus pour voir les observations et prévisions météorologiques.

Pour changer de carte: cliquez sur les boutons verts avec une croix noire pour zoomer, sur le bouton vert avec un tiret pour effectuer un zoom arrière, ou sur les flèches vertes pour les cartes adjacentes.


METAR-TAF: